Jermyn, Pennsylvania
Current Conditions -  °F | °C
As of 11:36 PM on Tuesday 21 Oct 2014 (Local Time) from KAVP Reporting Station
Haze Haze  
Wind Chill: 51°   Ceiling: 6000
Heat Index: 51°   Visibility: 5mi
Dew Point: 48°   Wind: 0mph
Humidity: 89%   Direction: NA
Pressure: 29.95"   Gusts: NA
Location:  41.53°N, 75.55°W
Report Text: KAVP 220336Z 00000KT 5SM BR SCT014 SCT026 BKN060 11/09 A2995 RMK AO2 T01060089
Loading
Personal Weather Stations






























Interactive Weather Map
Tropical Storm Tracking
New forecast layout! Learn more

10-Day Weather Forecast

Advertisements
Track Severe Weather on mobile